sensor_id;sensor_type;location;lat;lon;timestamp;pressure;altitude;pressure_sealevel;temperature;humidity
58955;BME280;45815;52.334;5.024;2023-01-25T00:01:40;103841.31;;;2.10;100.00
58955;BME280;45815;52.334;5.024;2023-01-25T00:04:06;103831.38;;;2.06;100.00
58955;BME280;45815;52.334;5.024;2023-01-25T00:06:31;103826.19;;;2.06;100.00
58955;BME280;45815;52.334;5.024;2023-01-25T00:08:56;103816.13;;;1.92;100.00
58955;BME280;45815;52.334;5.024;2023-01-25T00:11:22;103823.44;;;1.96;100.00
58955;BME280;45815;52.334;5.024;2023-01-25T00:13:47;103822.84;;;1.98;100.00
58955;BME280;45815;52.334;5.024;2023-01-25T00:16:13;103815.25;;;2.00;100.00
58955;BME280;45815;52.334;5.024;2023-01-25T00:18:38;103816.31;;;2.02;100.00
58955;BME280;45815;52.334;5.024;2023-01-25T00:21:16;103804.56;;;1.97;100.00
58955;BME280;45815;52.334;5.024;2023-01-25T00:23:41;103813.41;;;2.07;100.00
58955;BME280;45815;52.334;5.024;2023-01-25T00:26:07;103816.00;;;2.07;100.00
58955;BME280;45815;52.334;5.024;2023-01-25T00:28:33;103800.91;;;2.03;100.00
58955;BME280;45815;52.334;5.024;2023-01-25T00:30:59;103809.75;;;2.05;100.00
58955;BME280;45815;52.334;5.024;2023-01-25T00:38:46;103807.03;;;2.04;100.00
58955;BME280;45815;52.334;5.024;2023-01-25T00:41:12;103809.75;;;2.05;100.00
58955;BME280;45815;52.334;5.024;2023-01-25T00:43:37;103801.97;;;2.05;100.00
58955;BME280;45815;52.334;5.024;2023-01-25T00:46:02;103787.19;;;1.96;100.00
58955;BME280;45815;52.334;5.024;2023-01-25T00:48:28;103801.25;;;2.06;100.00
58955;BME280;45815;52.334;5.024;2023-01-25T00:50:54;103802.16;;;2.07;100.00
58955;BME280;45815;52.334;5.024;2023-01-25T00:53:24;103796.97;;;2.07;100.00
58955;BME280;45815;52.334;5.024;2023-01-25T00:55:55;103803.66;;;2.05;100.00
58955;BME280;45815;52.334;5.024;2023-01-25T00:58:20;103796.06;;;2.06;100.00
58955;BME280;45815;52.334;5.024;2023-01-25T01:00:46;103797.72;;;2.06;100.00
58955;BME280;45815;52.334;5.024;2023-01-25T01:03:14;103783.72;;;2.04;100.00
58955;BME280;45815;52.334;5.024;2023-01-25T01:05:40;103786.31;;;2.04;100.00
58955;BME280;45815;52.334;5.024;2023-01-25T01:08:05;103788.91;;;2.04;100.00
58955;BME280;45815;52.334;5.024;2023-01-25T01:10:31;103782.03;;;2.04;100.00
58955;BME280;45815;52.334;5.024;2023-01-25T01:12:56;103780.03;;;2.02;100.00
58955;BME280;45815;52.334;5.024;2023-01-25T01:15:22;103784.44;;;2.03;100.00
58955;BME280;45815;52.334;5.024;2023-01-25T01:17:47;103778.97;;;2.00;100.00
58955;BME280;45815;52.334;5.024;2023-01-25T01:20:12;103777.47;;;2.02;100.00
58955;BME280;45815;52.334;5.024;2023-01-25T01:22:38;103779.28;;;2.03;100.00
58955;BME280;45815;52.334;5.024;2023-01-25T01:25:04;103770.44;;;2.01;100.00
58955;BME280;45815;52.334;5.024;2023-01-25T01:27:30;103772.72;;;1.98;100.00
58955;BME280;45815;52.334;5.024;2023-01-25T01:29:56;103778.19;;;2.01;100.00
58955;BME280;45815;52.334;5.024;2023-01-25T01:32:21;103775.00;;;1.95;100.00
58955;BME280;45815;52.334;5.024;2023-01-25T01:34:48;103773.16;;;1.94;100.00
58955;BME280;45815;52.334;5.024;2023-01-25T01:37:13;103772.84;;;1.90;100.00
58955;BME280;45815;52.334;5.024;2023-01-25T01:39:39;103773.03;;;1.92;100.00
58955;BME280;45815;52.334;5.024;2023-01-25T01:42:04;103775.63;;;1.92;100.00
58955;BME280;45815;52.334;5.024;2023-01-25T01:44:48;103773.31;;;1.86;100.00
58955;BME280;45815;52.334;5.024;2023-01-25T01:47:21;103776.19;;;1.89;100.00
58955;BME280;45815;52.334;5.024;2023-01-25T01:50:08;103762.91;;;1.78;100.00
58955;BME280;45815;52.334;5.024;2023-01-25T01:52:41;103782.16;;;1.88;100.00
58955;BME280;45815;52.334;5.024;2023-01-25T01:55:14;103780.78;;;1.83;100.00
58955;BME280;45815;52.334;5.024;2023-01-25T01:57:46;103785.94;;;1.83;100.00
58955;BME280;45815;52.334;5.024;2023-01-25T02:00:20;103780.78;;;1.83;100.00
58955;BME280;45815;52.334;5.024;2023-01-25T02:02:49;103775.72;;;1.85;100.00
58955;BME280;45815;52.334;5.024;2023-01-25T02:05:20;103774.69;;;1.83;100.00
58955;BME280;45815;52.334;5.024;2023-01-25T02:07:48;103769.81;;;1.86;100.00
58955;BME280;45815;52.334;5.024;2023-01-25T02:10:17;103761.88;;;1.84;100.00
58955;BME280;45815;52.334;5.024;2023-01-25T02:12:44;103766.75;;;1.81;100.00
58955;BME280;45815;52.334;5.024;2023-01-25T02:15:10;103758.19;;;1.82;100.00
58955;BME280;45815;52.334;5.024;2023-01-25T02:17:37;103763.38;;;1.82;100.00
58955;BME280;45815;52.334;5.024;2023-01-25T02:25:15;103760.31;;;1.69;100.00
58955;BME280;45815;52.334;5.024;2023-01-25T02:27:50;103755.56;;;1.47;100.00
58955;BME280;45815;52.334;5.024;2023-01-25T02:30:18;103750.19;;;1.46;100.00
58955;BME280;45815;52.334;5.024;2023-01-25T02:32:43;103732.47;;;1.33;100.00
58955;BME280;45815;52.334;5.024;2023-01-25T02:35:24;103746.50;;;1.35;100.00
58955;BME280;45815;52.334;5.024;2023-01-25T02:37:50;103744.69;;;1.34;100.00
58955;BME280;45815;52.334;5.024;2023-01-25T02:40:16;103741.94;;;1.33;100.00
58955;BME280;45815;52.334;5.024;2023-01-25T02:42:43;103747.41;;;1.27;100.00
58955;BME280;45815;52.334;5.024;2023-01-25T02:45:14;103740.06;;;1.23;100.00
58955;BME280;45815;52.334;5.024;2023-01-25T02:47:41;103739.75;;;1.20;100.00
58955;BME280;45815;52.334;5.024;2023-01-25T02:50:08;103738.69;;;1.18;100.00
58955;BME280;45815;52.334;5.024;2023-01-25T02:52:33;103732.13;;;1.13;100.00
58955;BME280;45815;52.334;5.024;2023-01-25T02:54:59;103725.09;;;1.12;100.00
58955;BME280;45815;52.334;5.024;2023-01-25T02:57:24;103723.41;;;1.12;100.00
58955;BME280;45815;52.334;5.024;2023-01-25T02:59:50;103719.06;;;1.20;100.00
58955;BME280;45815;52.334;5.024;2023-01-25T03:02:15;103719.81;;;1.19;100.00
58955;BME280;45815;52.334;5.024;2023-01-25T03:04:42;103715.69;;;1.21;100.00
58955;BME280;45815;52.334;5.024;2023-01-25T03:07:07;103712.38;;;1.22;100.00
58955;BME280;45815;52.334;5.024;2023-01-25T03:09:32;103720.56;;;1.18;100.00
58955;BME280;45815;52.334;5.024;2023-01-25T03:11:58;103726.94;;;1.13;100.00
58955;BME280;45815;52.334;5.024;2023-01-25T03:14:23;103721.44;;;1.10;100.00
58955;BME280;45815;52.334;5.024;2023-01-25T03:16:49;103723.59;;;1.14;100.00
58955;BME280;45815;52.334;5.024;2023-01-25T03:19:17;103719.31;;;1.14;100.00
58955;BME280;45815;52.334;5.024;2023-01-25T03:21:42;103718.72;;;1.08;100.00
58955;BME280;45815;52.334;5.024;2023-01-25T03:24:08;103722.19;;;1.09;100.00
58955;BME280;45815;52.334;5.024;2023-01-25T03:26:39;103718.38;;;1.05;100.00
58955;BME280;45815;52.334;5.024;2023-01-25T03:29:30;103704.09;;;1.09;100.00
58955;BME280;45815;52.334;5.024;2023-01-25T03:31:57;103699.84;;;1.09;100.00
58955;BME280;45815;52.334;5.024;2023-01-25T03:34:23;103698.16;;;1.10;100.00
58955;BME280;45815;52.334;5.024;2023-01-25T03:36:48;103710.00;;;1.08;100.00
58955;BME280;45815;52.334;5.024;2023-01-25T03:39:17;103710.78;;;1.07;100.00
58955;BME280;45815;52.334;5.024;2023-01-25T03:41:42;103702.84;;;0.96;100.00
58955;BME280;45815;52.334;5.024;2023-01-25T03:44:10;103696.16;;;0.98;100.00
58955;BME280;45815;52.334;5.024;2023-01-25T03:46:37;103690.66;;;0.95;100.00
58955;BME280;45815;52.334;5.024;2023-01-25T03:49:03;103695.22;;;0.98;100.00
58955;BME280;45815;52.334;5.024;2023-01-25T03:51:29;103698.75;;;0.98;100.00
58955;BME280;45815;52.334;5.024;2023-01-25T03:53:55;103694.31;;;0.97;100.00
58955;BME280;45815;52.334;5.024;2023-01-25T03:56:21;103682.44;;;0.99;100.00
58955;BME280;45815;52.334;5.024;2023-01-25T03:59:02;103670.84;;;0.87;100.00
58955;BME280;45815;52.334;5.024;2023-01-25T04:01:29;103678.44;;;0.86;100.00
58955;BME280;45815;52.334;5.024;2023-01-25T04:03:54;103683.47;;;0.93;100.00
58955;BME280;45815;52.334;5.024;2023-01-25T04:06:20;103680.16;;;0.94;100.00
58955;BME280;45815;52.334;5.024;2023-01-25T04:08:45;103670.84;;;0.96;100.00
58955;BME280;45815;52.334;5.024;2023-01-25T04:11:11;103678.06;;;0.98;100.00
58955;BME280;45815;52.334;5.024;2023-01-25T04:13:37;103672.53;;;0.95;100.00
58955;BME280;45815;52.334;5.024;2023-01-25T04:16:06;103662.19;;;0.95;100.00
58955;BME280;45815;52.334;5.024;2023-01-25T04:18:52;103669.94;;;0.95;100.00
58955;BME280;45815;52.334;5.024;2023-01-25T04:21:18;103664.19;;;0.98;100.00
58955;BME280;45815;52.334;5.024;2023-01-25T04:23:43;103665.44;;;1.01;100.00
58955;BME280;45815;52.334;5.024;2023-01-25T04:26:10;103657.66;;;1.01;100.00
58955;BME280;45815;52.334;5.024;2023-01-25T04:28:37;103665.13;;;1.07;100.00
58955;BME280;45815;52.334;5.024;2023-01-25T04:31:03;103658.88;;;1.05;100.00
58955;BME280;45815;52.334;5.024;2023-01-25T04:33:34;103656.91;;;1.02;100.00
58955;BME280;45815;52.334;5.024;2023-01-25T04:35:59;103647.59;;;0.96;100.00
58955;BME280;45815;52.334;5.024;2023-01-25T04:38:25;103653.09;;;0.99;100.00
58955;BME280;45815;52.334;5.024;2023-01-25T04:40:52;103642.72;;;0.90;100.00
58955;BME280;45815;52.334;5.024;2023-01-25T04:43:18;103657.44;;;0.91;100.00
58955;BME280;45815;52.334;5.024;2023-01-25T04:45:44;103652.09;;;0.81;100.00
58955;BME280;45815;52.334;5.024;2023-01-25T04:48:19;103651.66;;;0.85;100.00
58955;BME280;45815;52.334;5.024;2023-01-25T04:50:49;103650.16;;;0.87;100.00
58955;BME280;45815;52.334;5.024;2023-01-25T04:53:17;103643.13;;;0.86;100.00
58955;BME280;45815;52.334;5.024;2023-01-25T04:55:45;103643.38;;;0.72;100.00
58955;BME280;45815;52.334;5.024;2023-01-25T04:58:12;103627.13;;;0.73;100.00
58955;BME280;45815;52.334;5.024;2023-01-25T05:00:42;103640.72;;;0.88;100.00
58955;BME280;45815;52.334;5.024;2023-01-25T05:03:09;103632.66;;;0.93;100.00
58955;BME280;45815;52.334;5.024;2023-01-25T05:05:35;103631.50;;;0.98;100.00
58955;BME280;45815;52.334;5.024;2023-01-25T05:08:05;103634.38;;;1.01;100.00
58955;BME280;45815;52.334;5.024;2023-01-25T05:10:30;103627.72;;;1.03;100.00
58955;BME280;45815;52.334;5.024;2023-01-25T05:13:16;103632.84;;;0.95;100.00
58955;BME280;45815;52.334;5.024;2023-01-25T05:15:42;103633.75;;;0.95;100.00
58955;BME280;45815;52.334;5.024;2023-01-25T05:18:08;103629.97;;;1.00;100.00
58955;BME280;45815;52.334;5.024;2023-01-25T05:20:33;103632.09;;;1.04;100.00
58955;BME280;45815;52.334;5.024;2023-01-25T05:22:59;103628.78;;;1.05;100.00
58955;BME280;45815;52.334;5.024;2023-01-25T05:25:26;103629.53;;;1.04;100.00
58955;BME280;45815;52.334;5.024;2023-01-25T05:28:12;103628.56;;;0.95;100.00
58955;BME280;45815;52.334;5.024;2023-01-25T05:30:57;103637.09;;;0.94;100.00
58955;BME280;45815;52.334;5.024;2023-01-25T05:33:24;103636.75;;;0.91;100.00
58955;BME280;45815;52.334;5.024;2023-01-25T05:35:50;103622.75;;;0.80;100.00
58955;BME280;45815;52.334;5.024;2023-01-25T05:38:16;103637.09;;;0.94;100.00
58955;BME280;45815;52.334;5.024;2023-01-25T05:40:41;103639.88;;;1.04;100.00
58955;BME280;45815;52.334;5.024;2023-01-25T05:43:07;103629.22;;;1.01;100.00
58955;BME280;45815;52.334;5.024;2023-01-25T05:45:32;103639.00;;;1.13;100.00
58955;BME280;45815;52.334;5.024;2023-01-25T05:47:59;103628.34;;;1.18;100.00
58955;BME280;45815;52.334;5.024;2023-01-25T05:50:26;103633.81;;;1.13;100.00
58955;BME280;45815;52.334;5.024;2023-01-25T05:53:14;103631.06;;;1.11;100.00
58955;BME280;45815;52.334;5.024;2023-01-25T05:55:39;103625.28;;;1.14;100.00
58955;BME280;45815;52.334;5.024;2023-01-25T05:58:08;103631.72;;;1.17;100.00
58955;BME280;45815;52.334;5.024;2023-01-25T06:00:34;103626.19;;;1.05;100.00
58955;BME280;45815;52.334;5.024;2023-01-25T06:03:00;103636.84;;;1.09;100.00
58955;BME280;45815;52.334;5.024;2023-01-25T06:05:26;103631.03;;;1.02;100.00
58955;BME280;45815;52.334;5.024;2023-01-25T06:07:51;103635.31;;;1.02;100.00
58955;BME280;45815;52.334;5.024;2023-01-25T06:10:18;103640.31;;;1.00;100.00
58955;BME280;45815;52.334;5.024;2023-01-25T06:12:47;103641.53;;;1.04;100.00
58955;BME280;45815;52.334;5.024;2023-01-25T06:15:13;103637.44;;;1.06;100.00
58955;BME280;45815;52.334;5.024;2023-01-25T06:17:38;103637.97;;;0.77;100.00
58955;BME280;45815;52.334;5.024;2023-01-25T06:20:16;103638.88;;;0.78;100.00
58955;BME280;45815;52.334;5.024;2023-01-25T06:23:02;103644.22;;;0.88;100.00
58955;BME280;45815;52.334;5.024;2023-01-25T06:25:27;103644.09;;;0.95;100.00
58955;BME280;45815;52.334;5.024;2023-01-25T06:27:54;103638.34;;;1.07;100.00
58955;BME280;45815;52.334;5.024;2023-01-25T06:30:19;103635.00;;;1.08;100.00
58955;BME280;45815;52.334;5.024;2023-01-25T06:32:45;103623.75;;;1.07;100.00
58955;BME280;45815;52.334;5.024;2023-01-25T06:35:10;103640.50;;;1.11;100.00
58955;BME280;45815;52.334;5.024;2023-01-25T06:37:35;103645.81;;;1.12;100.00
58955;BME280;45815;52.334;5.024;2023-01-25T06:40:01;103638.22;;;1.14;100.00
58955;BME280;45815;52.334;5.024;2023-01-25T06:42:26;103640.38;;;1.18;100.00
58955;BME280;45815;52.334;5.024;2023-01-25T06:44:51;103635.16;;;1.09;100.00
58955;BME280;45815;52.334;5.024;2023-01-25T06:47:17;103614.31;;;1.08;100.00
58955;BME280;45815;52.334;5.024;2023-01-25T06:49:42;103628.03;;;1.24;100.00
58955;BME280;45815;52.334;5.024;2023-01-25T06:52:08;103634.00;;;1.23;100.00
58955;BME280;45815;52.334;5.024;2023-01-25T06:54:33;103621.63;;;1.12;100.00
58955;BME280;45815;52.334;5.024;2023-01-25T06:56:58;103629.25;;;1.10;100.00
58955;BME280;45815;52.334;5.024;2023-01-25T06:59:24;103620.88;;;1.13;100.00
58955;BME280;45815;52.334;5.024;2023-01-25T07:01:49;103615.56;;;1.11;100.00
58955;BME280;45815;52.334;5.024;2023-01-25T07:04:15;103616.16;;;1.09;100.00
58955;BME280;45815;52.334;5.024;2023-01-25T07:06:40;103617.97;;;1.10;100.00
58955;BME280;45815;52.334;5.024;2023-01-25T07:09:08;103623.91;;;1.09;100.00
58955;BME280;45815;52.334;5.024;2023-01-25T07:11:34;103613.06;;;0.95;100.00
58955;BME280;45815;52.334;5.024;2023-01-25T07:14:00;103629.09;;;1.09;100.00
58955;BME280;45815;52.334;5.024;2023-01-25T07:16:26;103629.56;;;1.13;100.00
58955;BME280;45815;52.334;5.024;2023-01-25T07:18:51;103621.63;;;1.12;100.00
58955;BME280;45815;52.334;5.024;2023-01-25T07:21:20;103626.19;;;1.14;100.00
58955;BME280;45815;52.334;5.024;2023-01-25T07:23:46;103620.41;;;1.17;100.00
58955;BME280;45815;52.334;5.024;2023-01-25T07:26:17;103620.72;;;1.11;100.00
58955;BME280;45815;52.334;5.024;2023-01-25T07:28:44;103619.22;;;1.13;100.00
58955;BME280;45815;52.334;5.024;2023-01-25T07:31:10;103613.13;;;1.13;100.00
58955;BME280;45815;52.334;5.024;2023-01-25T07:33:35;103609.91;;;1.07;100.00
58955;BME280;45815;52.334;5.024;2023-01-25T07:36:05;103604.09;;;1.00;100.00
58955;BME280;45815;52.334;5.024;2023-01-25T07:38:32;103606.25;;;1.04;100.00
58955;BME280;45815;52.334;5.024;2023-01-25T07:40:57;103605.78;;;1.00;100.00
58955;BME280;45815;52.334;5.024;2023-01-25T07:43:23;103600.91;;;1.03;100.00
58955;BME280;45815;52.334;5.024;2023-01-25T07:45:50;103602.16;;;1.07;100.00
58955;BME280;45815;52.334;5.024;2023-01-25T07:48:17;103597.88;;;1.07;100.00
58955;BME280;45815;52.334;5.024;2023-01-25T07:50:43;103594.09;;;1.03;100.00
58955;BME280;45815;52.334;5.024;2023-01-25T07:53:15;103565.09;;;0.81;100.00
58955;BME280;45815;52.334;5.024;2023-01-25T07:55:41;103584.75;;;0.88;100.00
58955;BME280;45815;52.334;5.024;2023-01-25T07:58:07;103578.97;;;0.91;100.00
58955;BME280;45815;52.334;5.024;2023-01-25T08:00:34;103593.28;;;0.96;100.00
58955;BME280;45815;52.334;5.024;2023-01-25T08:03:00;103587.34;;;0.88;100.00
58955;BME280;45815;52.334;5.024;2023-01-25T08:05:25;103590.22;;;0.91;100.00
58955;BME280;45815;52.334;5.024;2023-01-25T08:07:50;103591.28;;;0.93;100.00
58955;BME280;45815;52.334;5.024;2023-01-25T08:10:16;103588.72;;;0.93;100.00
58955;BME280;45815;52.334;5.024;2023-01-25T08:12:45;103583.09;;;0.97;100.00
58955;BME280;45815;52.334;5.024;2023-01-25T08:15:11;103600.00;;;0.94;100.00
58955;BME280;45815;52.334;5.024;2023-01-25T08:17:37;103594.34;;;0.89;100.00
58955;BME280;45815;52.334;5.024;2023-01-25T08:20:11;103588.66;;;0.76;100.00
58955;BME280;45815;52.334;5.024;2023-01-25T08:22:36;103597.81;;;0.81;100.00
58955;BME280;45815;52.334;5.024;2023-01-25T08:25:03;103590.19;;;0.74;100.00
58955;BME280;45815;52.334;5.024;2023-01-25T08:27:28;103588.97;;;0.79;100.00
58955;BME280;45815;52.334;5.024;2023-01-25T08:29:54;103596.56;;;0.69;100.00
58955;BME280;45815;52.334;5.024;2023-01-25T08:32:19;103588.94;;;0.70;100.00
58955;BME280;45815;52.334;5.024;2023-01-25T08:34:45;103585.91;;;0.66;100.00
58955;BME280;45815;52.334;5.024;2023-01-25T08:37:11;103582.97;;;0.62;100.00
58955;BME280;45815;52.334;5.024;2023-01-25T08:39:36;103564.59;;;0.59;100.00
58955;BME280;45815;52.334;5.024;2023-01-25T08:42:02;103564.03;;;0.71;100.00
58955;BME280;45815;52.334;5.024;2023-01-25T08:44:27;103566.47;;;0.78;100.00
58955;BME280;45815;52.334;5.024;2023-01-25T08:46:53;103564.97;;;0.80;100.00
58955;BME280;45815;52.334;5.024;2023-01-25T08:49:18;103560.66;;;0.72;100.00
58955;BME280;45815;52.334;5.024;2023-01-25T08:51:43;103560.06;;;0.66;100.00
58955;BME280;45815;52.334;5.024;2023-01-25T08:54:11;103562.81;;;0.76;100.00
58955;BME280;45815;52.334;5.024;2023-01-25T08:56:40;103567.50;;;0.71;100.00
58955;BME280;45815;52.334;5.024;2023-01-25T08:59:08;103562.78;;;0.67;100.00
58955;BME280;45815;52.334;5.024;2023-01-25T09:01:35;103567.22;;;0.68;100.00
58955;BME280;45815;52.334;5.024;2023-01-25T09:04:00;103559.94;;;0.73;100.00
58955;BME280;45815;52.334;5.024;2023-01-25T09:06:26;103550.06;;;0.77;100.00
58955;BME280;45815;52.334;5.024;2023-01-25T09:08:51;103558.88;;;0.88;100.00
58955;BME280;45815;52.334;5.024;2023-01-25T09:11:21;103556.31;;;0.88;100.00
58955;BME280;45815;52.334;5.024;2023-01-25T09:13:47;103551.91;;;0.87;100.00
58955;BME280;45815;52.334;5.024;2023-01-25T09:16:23;103548.25;;;0.85;100.00
58955;BME280;45815;52.334;5.024;2023-01-25T09:18:52;103554.34;;;0.94;100.00
58955;BME280;45815;52.334;5.024;2023-01-25T09:21:18;103557.25;;;0.97;100.00
58955;BME280;45815;52.334;5.024;2023-01-25T09:23:46;103547.38;;;1.02;100.00
58955;BME280;45815;52.334;5.024;2023-01-25T09:26:13;103545.22;;;0.98;100.00
58955;BME280;45815;52.334;5.024;2023-01-25T09:28:40;103526.50;;;0.83;100.00
58955;BME280;45815;52.334;5.024;2023-01-25T09:31:06;103537.00;;;0.93;100.00
58955;BME280;45815;52.334;5.024;2023-01-25T09:34:02;103533.66;;;0.94;100.00
58955;BME280;45815;52.334;5.024;2023-01-25T09:36:28;103543.09;;;0.94;100.00
58955;BME280;45815;52.334;5.024;2023-01-25T09:38:54;103533.66;;;0.94;100.00
58955;BME280;45815;52.334;5.024;2023-01-25T09:46:39;103531.19;;;0.78;100.00
58955;BME280;45815;52.334;5.024;2023-01-25T09:49:20;103529.06;;;0.83;100.00
58955;BME280;45815;52.334;5.024;2023-01-25T09:54:18;103505.03;;;0.84;100.00
58955;BME280;45815;52.334;5.024;2023-01-25T09:56:47;103512.22;;;0.95;100.00
58955;BME280;45815;52.334;5.024;2023-01-25T09:59:18;103487.88;;;0.93;100.00
58955;BME280;45815;52.334;5.024;2023-01-25T10:01:50;103499.13;;;1.02;100.00
58955;BME280;45815;52.334;5.024;2023-01-25T10:04:20;103494.72;;;0.93;100.00
58955;BME280;45815;52.334;5.024;2023-01-25T10:07:11;103490.59;;;0.86;100.00
58955;BME280;45815;52.334;5.024;2023-01-25T10:12:24;103487.56;;;0.90;100.00
58955;BME280;45815;52.334;5.024;2023-01-25T10:14:53;103485.56;;;0.79;100.00
58955;BME280;45815;52.334;5.024;2023-01-25T10:17:30;103493.19;;;0.86;100.00
58955;BME280;45815;52.334;5.024;2023-01-25T10:22:53;103491.97;;;0.91;100.00
58955;BME280;45815;52.334;5.024;2023-01-25T10:25:31;103478.56;;;0.87;100.00
58955;BME280;45815;52.334;5.024;2023-01-25T10:28:13;103473.75;;;0.98;100.00
58955;BME280;45815;52.334;5.024;2023-01-25T10:31:13;103469.16;;;0.87;100.00
58955;BME280;45815;52.334;5.024;2023-01-25T10:33:43;103455.75;;;0.74;100.00
58955;BME280;45815;52.334;5.024;2023-01-25T10:36:13;103466.88;;;0.90;100.00
58955;BME280;45815;52.334;5.024;2023-01-25T10:38:42;103463.06;;;0.95;100.00
58955;BME280;45815;52.334;5.024;2023-01-25T10:43:34;103455.03;;;0.92;100.00
58955;BME280;45815;52.334;5.024;2023-01-25T10:46:00;103454.25;;;0.93;100.00
58955;BME280;45815;52.334;5.024;2023-01-25T10:48:29;103450.31;;;0.97;100.00
58955;BME280;45815;52.334;5.024;2023-01-25T10:50:57;103450.59;;;1.00;100.00
58955;BME280;45815;52.334;5.024;2023-01-25T10:53:26;103429.91;;;1.00;100.00
58955;BME280;45815;52.334;5.024;2023-01-25T10:58:46;103413.19;;;0.88;100.00
58955;BME280;45815;52.334;5.024;2023-01-25T11:01:24;103410.44;;;0.86;100.00
58955;BME280;45815;52.334;5.024;2023-01-25T11:03:50;103410.44;;;0.95;100.00
58955;BME280;45815;52.334;5.024;2023-01-25T11:06:34;103415.78;;;0.96;100.00
58955;BME280;45815;52.334;5.024;2023-01-25T11:11:56;103406.19;;;0.95;100.00
58955;BME280;45815;52.334;5.024;2023-01-25T11:14:24;103396.75;;;1.04;100.00
58955;BME280;45815;52.334;5.024;2023-01-25T11:16:51;103397.03;;;1.08;100.00
58955;BME280;45815;52.334;5.024;2023-01-25T11:19:26;103391.88;;;1.08;100.00
58955;BME280;45815;52.334;5.024;2023-01-25T11:21:54;103395.22;;;1.15;100.00
58955;BME280;45815;52.334;5.024;2023-01-25T11:24:20;103377.09;;;1.24;100.00
58955;BME280;45815;52.334;5.024;2023-01-25T11:26:49;103368.13;;;1.29;100.00
58955;BME280;45815;52.334;5.024;2023-01-25T11:29:20;103357.28;;;1.33;100.00
58955;BME280;45815;52.334;5.024;2023-01-25T11:31:51;103354.69;;;1.33;100.00
58955;BME280;45815;52.334;5.024;2023-01-25T11:34:20;103342.38;;;1.39;100.00
58955;BME280;45815;52.334;5.024;2023-01-25T11:39:45;103333.06;;;1.41;100.00
58955;BME280;45815;52.334;5.024;2023-01-25T11:57:07;103293.72;;;1.18;100.00
58955;BME280;45815;52.334;5.024;2023-01-25T12:08:08;103268.63;;;1.17;100.00
58955;BME280;45815;52.334;5.024;2023-01-25T12:11:11;103259.25;;;1.00;100.00
58955;BME280;45815;52.334;5.024;2023-01-25T12:19:17;103227.13;;;1.07;100.00
58955;BME280;45815;52.334;5.024;2023-01-25T12:25:08;103212.56;;;0.98;100.00
58955;BME280;45815;52.334;5.024;2023-01-25T12:30:55;103202.94;;;1.06;100.00
58955;BME280;45815;52.334;5.024;2023-01-25T12:33:37;103199.91;;;1.10;100.00
58955;BME280;45815;52.334;5.024;2023-01-25T12:41:27;103204.13;;;1.10;100.00
58955;BME280;45815;52.334;5.024;2023-01-25T12:44:05;103194.28;;;1.05;100.00
58955;BME280;45815;52.334;5.024;2023-01-25T12:46:44;103186.53;;;1.05;100.00
58955;BME280;45815;52.334;5.024;2023-01-25T12:49:24;103180.13;;;1.02;100.00
58955;BME280;45815;52.334;5.024;2023-01-25T12:51:54;103172.81;;;1.07;100.00
58955;BME280;45815;52.334;5.024;2023-01-25T12:54:37;103164.00;;;1.04;100.00
58955;BME280;45815;52.334;5.024;2023-01-25T12:57:15;103169.16;;;1.04;100.00
58955;BME280;45815;52.334;5.024;2023-01-25T12:59:56;103152.22;;;0.89;100.00
58955;BME280;45815;52.334;5.024;2023-01-25T13:02:49;103160.97;;;1.00;100.00
58955;BME280;45815;52.334;5.024;2023-01-25T13:10:34;103163.72;;;1.01;100.00
58955;BME280;45815;52.334;5.024;2023-01-25T13:13:20;103155.81;;;0.91;100.00
58955;BME280;45815;52.334;5.024;2023-01-25T13:15:47;103153.50;;;1.03;100.00
58955;BME280;45815;52.334;5.024;2023-01-25T13:20:55;103133.94;;;0.96;100.00
58955;BME280;45815;52.334;5.024;2023-01-25T13:23:35;103139.38;;;0.99;100.00
58955;BME280;45815;52.334;5.024;2023-01-25T13:28:58;103122.47;;;1.03;100.00
58955;BME280;45815;52.334;5.024;2023-01-25T13:34:08;103117.34;;;0.94;100.00
58955;BME280;45815;52.334;5.024;2023-01-25T13:39:44;103117.22;;;0.84;100.00
58955;BME280;45815;52.334;5.024;2023-01-25T13:44:42;103106.69;;;0.91;100.00
58955;BME280;45815;52.334;5.024;2023-01-25T13:47:15;103097.41;;;0.93;100.00
58955;BME280;45815;52.334;5.024;2023-01-25T13:49:46;103079.81;;;0.89;100.00
58955;BME280;45815;52.334;5.024;2023-01-25T13:52:15;103087.69;;;0.91;100.00
58955;BME280;45815;52.334;5.024;2023-01-25T13:54:43;103088.44;;;0.98;100.00
58955;BME280;45815;52.334;5.024;2023-01-25T13:57:20;103088.44;;;0.98;100.00
58955;BME280;45815;52.334;5.024;2023-01-25T13:59:46;103093.69;;;1.09;100.00
58955;BME280;45815;52.334;5.024;2023-01-25T14:02:19;103089.19;;;0.97;100.00
58955;BME280;45815;52.334;5.024;2023-01-25T14:04:47;103095.47;;;0.91;100.00
58955;BME280;45815;52.334;5.024;2023-01-25T14:07:17;103086.81;;;0.81;100.00
58955;BME280;45815;52.334;5.024;2023-01-25T14:09:45;103086.53;;;0.87;100.00
58955;BME280;45815;52.334;5.024;2023-01-25T14:12:32;103084.16;;;0.71;100.00
58955;BME280;45815;52.334;5.024;2023-01-25T14:17:44;103096.56;;;0.84;100.00
58955;BME280;45815;52.334;5.024;2023-01-25T14:20:18;103091.19;;;0.91;100.00
58955;BME280;45815;52.334;5.024;2023-01-25T14:22:48;103088.03;;;0.85;100.00
58955;BME280;45815;52.334;5.024;2023-01-25T14:27:53;103086.16;;;0.93;100.00
58955;BME280;45815;52.334;5.024;2023-01-25T14:32:59;103087.06;;;0.93;100.00
58955;BME280;45815;52.334;5.024;2023-01-25T14:37:58;103079.13;;;1.00;100.00
58955;BME280;45815;52.334;5.024;2023-01-25T14:40:27;103083.53;;;0.74;100.00
58955;BME280;45815;52.334;5.024;2023-01-25T14:42:55;103068.53;;;0.89;100.00
58955;BME280;45815;52.334;5.024;2023-01-25T14:45:22;103061.53;;;0.96;100.00